IGU172 LIMB-LILG
Flight info
| Callsign | IGU172 |
|---|---|
| Flight time | 0h 13m |
| Altitude | 4000 |
| Route | SRN |
| Aircraft | C172/L-SFG/C |
Departure
| Time | 2026-04-25 16:33 |
|---|---|
| Airport | Milano-Bresso Airfield (LIMB) |
Arrival
| Time | 2026-04-25 16:46 |
|---|---|
| Airport | Vergiate Airfield (LILG) |
| Time | Latitude | Longitude | Altitude | Speed | Heading |
|---|---|---|---|---|---|
| 2026-04-25 16:25 | 45.53770 | 9.19979 | 463 ft | 0 kts | 269° |
| 2026-04-25 16:29 | 45.53770 | 9.19962 | 463 ft | 5 kts | 279° |
| 2026-04-25 16:29 | 45.53823 | 9.19951 | 463 ft | 12 kts | 355° |
| 2026-04-25 16:29 | 45.53931 | 9.19961 | 463 ft | 15 kts | 356° |
| 2026-04-25 16:30 | 45.54024 | 9.20001 | 463 ft | 17 kts | 74° |
| 2026-04-25 16:30 | 45.54049 | 9.20120 | 463 ft | 21 kts | 73° |
| 2026-04-25 16:30 | 45.54180 | 9.20246 | 470 ft | 24 kts | 358° |
| 2026-04-25 16:30 | 45.54358 | 9.20238 | 477 ft | 25 kts | 356° |
| 2026-04-25 16:31 | 45.54462 | 9.20233 | 477 ft | 7 kts | 255° |
| 2026-04-25 16:31 | 45.54427 | 9.20232 | 477 ft | 0 kts | 181° |
| 2026-04-25 16:31 | 45.54426 | 9.20232 | 477 ft | 3 kts | 181° |
| 2026-04-25 16:32 | 45.54237 | 9.20232 | 475 ft | 50 kts | 176° |
| 2026-04-25 16:32 | 45.53775 | 9.20246 | 499 ft | 79 kts | 182° |
| 2026-04-25 16:32 | 45.53246 | 9.20324 | 706 ft | 75 kts | 175° |
| 2026-04-25 16:32 | 45.52632 | 9.20425 | 764 ft | 95 kts | 183° |
| 2026-04-25 16:33 | 45.52257 | 9.20142 | 874 ft | 97 kts | 242° |
| 2026-04-25 16:33 | 45.52667 | 9.19127 | 1086 ft | 101 kts | 349° |
| 2026-04-25 16:33 | 45.53375 | 9.18951 | 1226 ft | 107 kts | 347° |
| 2026-04-25 16:33 | 45.54119 | 9.18739 | 1396 ft | 107 kts | 348° |
| 2026-04-25 16:34 | 45.54608 | 9.18587 | 1570 ft | 107 kts | 338° |
| 2026-04-25 16:34 | 45.54933 | 9.17527 | 2016 ft | 86 kts | 253° |
| 2026-04-25 16:34 | 45.54912 | 9.16956 | 2136 ft | 90 kts | 287° |
| 2026-04-25 16:34 | 45.55244 | 9.15841 | 2403 ft | 95 kts | 291° |
| 2026-04-25 16:35 | 45.55426 | 9.15265 | 2522 ft | 97 kts | 292° |
| 2026-04-25 16:35 | 45.55818 | 9.14092 | 2764 ft | 99 kts | 294° |
| 2026-04-25 16:35 | 45.56023 | 9.13504 | 2890 ft | 101 kts | 294° |
| 2026-04-25 16:35 | 45.56444 | 9.12299 | 3119 ft | 101 kts | 294° |
| 2026-04-25 16:36 | 45.56656 | 9.11703 | 3237 ft | 100 kts | 293° |
| 2026-04-25 16:36 | 45.56865 | 9.11116 | 3353 ft | 99 kts | 296° |
| 2026-04-25 16:36 | 45.57288 | 9.09929 | 3579 ft | 99 kts | 294° |
| 2026-04-25 16:36 | 45.57599 | 9.09053 | 3683 ft | 102 kts | 294° |
| 2026-04-25 16:37 | 45.57939 | 9.08100 | 3699 ft | 112 kts | 294° |
| 2026-04-25 16:37 | 45.58306 | 9.07082 | 3698 ft | 118 kts | 296° |
| 2026-04-25 16:37 | 45.58686 | 9.06021 | 3699 ft | 122 kts | 295° |
| 2026-04-25 16:37 | 45.59068 | 9.04951 | 3692 ft | 122 kts | 296° |
| 2026-04-25 16:38 | 45.59454 | 9.03868 | 3696 ft | 124 kts | 295° |
| 2026-04-25 16:38 | 45.59844 | 9.02773 | 3695 ft | 122 kts | 295° |
| 2026-04-25 16:38 | 45.60229 | 9.01701 | 3695 ft | 121 kts | 295° |
| 2026-04-25 16:38 | 45.60608 | 9.00630 | 3696 ft | 122 kts | 295° |
| 2026-04-25 16:39 | 45.60994 | 8.99544 | 3694 ft | 122 kts | 295° |
| 2026-04-25 16:39 | 45.61379 | 8.98465 | 3698 ft | 122 kts | 296° |
| 2026-04-25 16:39 | 45.61762 | 8.97386 | 3692 ft | 121 kts | 295° |
| 2026-04-25 16:39 | 45.62136 | 8.96335 | 3698 ft | 119 kts | 295° |
| 2026-04-25 16:40 | 45.62394 | 8.95610 | 3690 ft | 122 kts | 295° |
| 2026-04-25 16:40 | 45.62899 | 8.94178 | 3696 ft | 123 kts | 295° |
| 2026-04-25 16:40 | 45.63290 | 8.93079 | 3695 ft | 125 kts | 294° |
| 2026-04-25 16:40 | 45.63676 | 8.91989 | 3686 ft | 120 kts | 295° |
| 2026-04-25 16:41 | 45.64050 | 8.90929 | 3688 ft | 119 kts | 295° |
| 2026-04-25 16:41 | 45.64300 | 8.90225 | 3686 ft | 120 kts | 295° |
| 2026-04-25 16:41 | 45.65189 | 8.87708 | 3691 ft | 124 kts | 295° |
| 2026-04-25 16:42 | 45.65574 | 8.86622 | 3694 ft | 125 kts | 295° |
| 2026-04-25 16:42 | 45.65966 | 8.85514 | 3691 ft | 124 kts | 295° |
| 2026-04-25 16:42 | 45.66350 | 8.84425 | 3697 ft | 123 kts | 296° |
| 2026-04-25 16:42 | 45.66741 | 8.83321 | 3693 ft | 125 kts | 295° |
| 2026-04-25 16:43 | 45.67134 | 8.82210 | 3696 ft | 125 kts | 296° |
| 2026-04-25 16:43 | 45.67525 | 8.81101 | 3693 ft | 124 kts | 295° |
| 2026-04-25 16:43 | 45.67912 | 8.80002 | 3693 ft | 124 kts | 295° |
| 2026-04-25 16:43 | 45.68304 | 8.78891 | 3697 ft | 126 kts | 295° |
| 2026-04-25 16:44 | 45.68707 | 8.77757 | 3582 ft | 129 kts | 295° |
| 2026-04-25 16:44 | 45.69117 | 8.76614 | 3427 ft | 131 kts | 294° |
| 2026-04-25 16:44 | 45.69429 | 8.75402 | 3251 ft | 133 kts | 269° |
| 2026-04-25 16:44 | 45.69148 | 8.74180 | 3023 ft | 130 kts | 243° |
| 2026-04-25 16:45 | 45.68747 | 8.73008 | 2790 ft | 129 kts | 244° |
| 2026-04-25 16:45 | 45.68418 | 8.71832 | 2486 ft | 129 kts | 262° |
| 2026-04-25 16:45 | 45.68760 | 8.70660 | 2099 ft | 134 kts | 326° |
| 2026-04-25 16:45 | 45.69582 | 8.70802 | 1895 ft | 103 kts | 23° |
| 2026-04-25 16:46 | 45.70242 | 8.70693 | 1451 ft | 103 kts | 337° |
| 2026-04-25 16:46 | 45.70917 | 8.70286 | 945 ft | 105 kts | 335° |
| 2026-04-25 16:46 | 45.71479 | 8.69953 | 859 ft | 63 kts | 336° |
| 2026-04-25 16:46 | 45.71679 | 8.69824 | 858 ft | 39 kts | 343° |
| 2026-04-25 16:47 | 45.71772 | 8.69812 | 852 ft | 11 kts | 163° |
| 2026-04-25 16:47 | 45.71689 | 8.69854 | 864 ft | 14 kts | 161° |
| 2026-04-25 16:47 | 45.71624 | 8.69963 | 864 ft | 6 kts | 325° |
| 2026-04-25 16:47 | 45.71620 | 8.69970 | 864 ft | 0 kts | 271° |
| 2026-04-25 16:48 | 45.71620 | 8.69995 | 864 ft | 7 kts | 270° |
| 2026-04-25 16:48 | 45.71621 | 8.70011 | 864 ft | 7 kts | 259° |
| 2026-04-25 16:48 | 45.71598 | 8.69913 | 863 ft | 18 kts | 246° |
| 2026-04-25 16:49 | 45.71595 | 8.69905 | 865 ft | 0 kts | 271° |
| 2026-04-25 16:49 | 45.71521 | 8.69922 | 858 ft | 40 kts | 199° |
| 2026-04-25 16:49 | 45.71133 | 8.70418 | 861 ft | 82 kts | 99° |
| 2026-04-25 16:49 | 45.70935 | 8.71042 | 836 ft | 41 kts | 195° |